National Weather Service Raw Text Product

Displaying AFOS PIL: TAFFOD Received: 2018-01-03 11:39 UTC


216 
FTUS43 KDMX 031139
TAFFOD
TAF
KFOD 031139Z 0312/0412 33014G24KT P6SM SKC
     FM032200 33012KT P6SM FEW250
     FM040200 32007KT P6SM FEW250=